sensor_id;sensor_type;location;lat;lon;timestamp;pressure;altitude;pressure_sealevel;temperature;humidity
73821;BME280;62150;43.582;1.456;2022-11-18T05:58:47;99485.41;;;9.10;100.00
73821;BME280;62150;43.582;1.456;2022-11-18T06:01:17;99494.13;;;9.06;100.00
73821;BME280;62150;43.582;1.456;2022-11-18T06:03:46;99494.91;;;9.08;100.00
73821;BME280;62150;43.582;1.456;2022-11-18T06:06:15;99501.81;;;9.06;100.00
73821;BME280;62150;43.582;1.456;2022-11-18T06:08:55;99501.06;;;9.04;100.00
73821;BME280;62150;43.582;1.456;2022-11-18T06:11:26;99503.69;;;9.02;100.00
73821;BME280;62150;43.582;1.456;2022-11-18T06:14:00;99509.63;;;9.03;100.00
73821;BME280;62150;43.582;1.456;2022-11-18T06:16:30;99505.56;;;8.99;100.00
73821;BME280;62150;43.582;1.456;2022-11-18T06:19:00;99506.47;;;8.98;100.00
73821;BME280;62150;43.582;1.456;2022-11-18T06:21:28;99508.25;;;8.96;100.00
73821;BME280;62150;43.582;1.456;2022-11-18T06:23:56;99518.50;;;8.96;100.00
73821;BME280;62150;43.582;1.456;2022-11-18T06:26:23;99517.47;;;9.00;100.00
73821;BME280;62150;43.582;1.456;2022-11-18T06:28:51;99514.81;;;9.01;100.00
73821;BME280;62150;43.582;1.456;2022-11-18T06:31:20;99524.19;;;9.02;100.00
73821;BME280;62150;43.582;1.456;2022-11-18T06:33:47;99530.78;;;9.08;100.00
73821;BME280;62150;43.582;1.456;2022-11-18T06:36:15;99530.78;;;9.08;100.00
73821;BME280;62150;43.582;1.456;2022-11-18T06:38:42;99531.81;;;9.04;100.00
73821;BME280;62150;43.582;1.456;2022-11-18T06:41:10;99528.22;;;9.08;100.00
73821;BME280;62150;43.582;1.456;2022-11-18T06:43:37;99533.28;;;9.10;100.00
73821;BME280;62150;43.582;1.456;2022-11-18T06:46:05;99535.00;;;9.09;100.00
73821;BME280;62150;43.582;1.456;2022-11-18T06:48:52;99531.47;;;9.12;100.00
73821;BME280;62150;43.582;1.456;2022-11-18T06:51:19;99534.88;;;9.12;100.00
73821;BME280;62150;43.582;1.456;2022-11-18T06:53:47;99535.78;;;9.11;100.00
73821;BME280;62150;43.582;1.456;2022-11-18T06:56:16;99533.91;;;9.15;100.00
73821;BME280;62150;43.582;1.456;2022-11-18T06:58:44;99541.59;;;9.15;100.00
73821;BME280;62150;43.582;1.456;2022-11-18T07:01:14;99540.66;;;9.17;100.00
73821;BME280;62150;43.582;1.456;2022-11-18T07:03:42;99536.47;;;9.15;100.00
73821;BME280;62150;43.582;1.456;2022-11-18T07:06:13;99544.94;;;9.17;100.00
73821;BME280;62150;43.582;1.456;2022-11-18T07:08:41;99546.53;;;9.19;100.00
73821;BME280;62150;43.582;1.456;2022-11-18T07:11:11;99553.25;;;9.22;100.00
73821;BME280;62150;43.582;1.456;2022-11-18T07:13:39;99555.00;;;9.21;100.00
73821;BME280;62150;43.582;1.456;2022-11-18T07:16:08;99571.06;;;9.25;100.00
73821;BME280;62150;43.582;1.456;2022-11-18T07:18:38;99564.34;;;9.22;100.00
73821;BME280;62150;43.582;1.456;2022-11-18T07:21:07;99569.53;;;9.21;100.00
73821;BME280;62150;43.582;1.456;2022-11-18T07:23:37;99574.34;;;9.28;100.00
73821;BME280;62150;43.582;1.456;2022-11-18T07:26:05;99581.91;;;9.31;100.00
73821;BME280;62150;43.582;1.456;2022-11-18T07:28:33;99583.22;;;9.40;100.00
73821;BME280;62150;43.582;1.456;2022-11-18T07:31:01;99579.63;;;9.44;100.00
73821;BME280;62150;43.582;1.456;2022-11-18T07:33:29;99582.91;;;9.48;100.00
73821;BME280;62150;43.582;1.456;2022-11-18T07:36:00;99581.34;;;9.44;100.00
73821;BME280;62150;43.582;1.456;2022-11-18T07:38:28;99588.78;;;9.50;100.00
73821;BME280;62150;43.582;1.456;2022-11-18T07:41:03;99589.44;;;9.55;100.00
73821;BME280;62150;43.582;1.456;2022-11-18T07:43:31;99580.13;;;9.52;100.00
73821;BME280;62150;43.582;1.456;2022-11-18T07:46:06;99591.09;;;9.56;100.00
73821;BME280;62150;43.582;1.456;2022-11-18T07:48:34;99590.91;;;9.60;100.00
73821;BME280;62150;43.582;1.456;2022-11-18T07:51:01;99594.50;;;9.56;100.00
73821;BME280;62150;43.582;1.456;2022-11-18T07:53:30;99596.47;;;9.70;100.00
73821;BME280;62150;43.582;1.456;2022-11-18T07:55:59;99591.34;;;9.70;100.00
73821;BME280;62150;43.582;1.456;2022-11-18T07:58:27;99595.81;;;9.65;100.00
73821;BME280;62150;43.582;1.456;2022-11-18T08:00:54;99589.50;;;9.72;100.00
73821;BME280;62150;43.582;1.456;2022-11-18T08:03:25;99591.81;;;9.78;100.00
73821;BME280;62150;43.582;1.456;2022-11-18T08:05:57;99592.56;;;9.80;100.00
73821;BME280;62150;43.582;1.456;2022-11-18T08:08:24;99594.38;;;9.78;100.00
73821;BME280;62150;43.582;1.456;2022-11-18T08:10:55;99602.50;;;9.88;100.00
73821;BME280;62150;43.582;1.456;2022-11-18T08:13:24;99606.03;;;9.85;100.00
73821;BME280;62150;43.582;1.456;2022-11-18T08:15:52;99619.34;;;9.93;100.00
73821;BME280;62150;43.582;1.456;2022-11-18T08:18:20;99617.63;;;9.94;100.00
73821;BME280;62150;43.582;1.456;2022-11-18T08:20:48;99615.75;;;9.97;100.00
73821;BME280;62150;43.582;1.456;2022-11-18T08:23:16;99616.16;;;10.07;100.00
73821;BME280;62150;43.582;1.456;2022-11-18T08:25:44;99616.22;;;10.05;100.00
73821;BME280;62150;43.582;1.456;2022-11-18T08:28:13;99610.03;;;10.09;100.00
73821;BME280;62150;43.582;1.456;2022-11-18T08:30:42;99609.84;;;10.14;100.00
73821;BME280;62150;43.582;1.456;2022-11-18T08:33:09;99616.94;;;10.28;100.00
73821;BME280;62150;43.582;1.456;2022-11-18T08:35:37;99616.88;;;10.29;100.00
73821;BME280;62150;43.582;1.456;2022-11-18T08:38:04;99609.13;;;10.31;100.00
73821;BME280;62150;43.582;1.456;2022-11-18T08:40:33;99613.28;;;10.33;100.00
73821;BME280;62150;43.582;1.456;2022-11-18T08:43:00;99606.56;;;10.48;100.00
73821;BME280;62150;43.582;1.456;2022-11-18T08:45:28;99604.63;;;10.53;100.00
73821;BME280;62150;43.582;1.456;2022-11-18T08:47:57;99611.00;;;10.45;100.00
73821;BME280;62150;43.582;1.456;2022-11-18T08:50:24;99614.47;;;10.62;100.00
73821;BME280;62150;43.582;1.456;2022-11-18T08:52:52;99605.25;;;10.58;100.00
73821;BME280;62150;43.582;1.456;2022-11-18T08:55:19;99602.81;;;10.55;100.00
73821;BME280;62150;43.582;1.456;2022-11-18T08:57:47;99600.28;;;10.72;100.00
73821;BME280;62150;43.582;1.456;2022-11-18T09:00:15;99606.25;;;10.73;100.00
73821;BME280;62150;43.582;1.456;2022-11-18T09:02:43;99605.34;;;10.74;100.00
73821;BME280;62150;43.582;1.456;2022-11-18T09:05:12;99607.31;;;10.86;100.00
73821;BME280;62150;43.582;1.456;2022-11-18T09:07:39;99597.53;;;10.75;100.00
73821;BME280;62150;43.582;1.456;2022-11-18T09:10:07;99609.66;;;10.91;100.00
73821;BME280;62150;43.582;1.456;2022-11-18T09:12:35;99607.84;;;10.93;100.00
73821;BME280;62150;43.582;1.456;2022-11-18T09:15:03;99611.03;;;10.98;100.00
73821;BME280;62150;43.582;1.456;2022-11-18T09:17:33;99608.09;;;11.05;100.00
73821;BME280;62150;43.582;1.456;2022-11-18T09:20:04;99607.53;;;11.16;100.00
73821;BME280;62150;43.582;1.456;2022-11-18T09:22:35;99616.25;;;10.96;100.00
73821;BME280;62150;43.582;1.456;2022-11-18T09:25:05;99617.69;;;11.02;100.00
73821;BME280;62150;43.582;1.456;2022-11-18T09:27:32;99612.91;;;11.12;100.00
73821;BME280;62150;43.582;1.456;2022-11-18T09:30:00;99614.34;;;11.17;100.00
73821;BME280;62150;43.582;1.456;2022-11-18T09:32:27;99618.72;;;11.15;100.00
73821;BME280;62150;43.582;1.456;2022-11-18T09:34:55;99615.66;;;11.08;100.00
73821;BME280;62150;43.582;1.456;2022-11-18T09:37:22;99613.13;;;11.24;100.00
73821;BME280;62150;43.582;1.456;2022-11-18T09:39:51;99612.22;;;11.43;100.00
73821;BME280;62150;43.582;1.456;2022-11-18T09:42:38;99608.09;;;11.56;100.00
73821;BME280;62150;43.582;1.456;2022-11-18T09:45:20;99606.72;;;11.66;100.00
73821;BME280;62150;43.582;1.456;2022-11-18T09:47:48;99610.44;;;11.78;100.00
73821;BME280;62150;43.582;1.456;2022-11-18T09:50:17;99600.56;;;11.68;100.00
73821;BME280;62150;43.582;1.456;2022-11-18T09:52:53;99611.03;;;11.98;100.00
73821;BME280;62150;43.582;1.456;2022-11-18T09:55:23;99614.19;;;12.03;100.00
73821;BME280;62150;43.582;1.456;2022-11-18T09:57:53;99609.88;;;12.04;100.00
73821;BME280;62150;43.582;1.456;2022-11-18T10:00:23;99613.31;;;11.87;100.00
73821;BME280;62150;43.582;1.456;2022-11-18T10:02:57;99601.63;;;11.97;100.00
73821;BME280;62150;43.582;1.456;2022-11-18T10:05:26;99599.91;;;11.98;100.00
73821;BME280;62150;43.582;1.456;2022-11-18T10:08:02;99595.56;;;11.98;100.00
73821;BME280;62150;43.582;1.456;2022-11-18T10:10:39;99603.78;;;11.89;100.00
73821;BME280;62150;43.582;1.456;2022-11-18T10:13:17;99602.28;;;11.85;100.00
73821;BME280;62150;43.582;1.456;2022-11-18T10:15:56;99604.69;;;11.88;100.00
73821;BME280;62150;43.582;1.456;2022-11-18T10:18:29;99597.59;;;12.09;100.00
73821;BME280;62150;43.582;1.456;2022-11-18T10:21:02;99595.25;;;12.04;100.00
73821;BME280;62150;43.582;1.456;2022-11-18T10:23:39;99592.53;;;12.07;100.00
73821;BME280;62150;43.582;1.456;2022-11-18T10:26:13;99590.34;;;12.16;100.00
73821;BME280;62150;43.582;1.456;2022-11-18T10:28:41;99588.94;;;12.26;100.00
73821;BME280;62150;43.582;1.456;2022-11-18T10:31:10;99592.22;;;12.59;100.00
73821;BME280;62150;43.582;1.456;2022-11-18T10:33:38;99586.56;;;12.68;100.00
73821;BME280;62150;43.582;1.456;2022-11-18T10:36:18;99583.56;;;12.90;100.00
73821;BME280;62150;43.582;1.456;2022-11-18T10:38:46;99581.03;;;13.04;100.00
73821;BME280;62150;43.582;1.456;2022-11-18T10:41:17;99578.63;;;13.01;100.00
73821;BME280;62150;43.582;1.456;2022-11-18T10:43:48;99576.72;;;13.05;100.00
73821;BME280;62150;43.582;1.456;2022-11-18T10:46:22;99576.63;;;13.06;100.00
73821;BME280;62150;43.582;1.456;2022-11-18T10:49:13;99577.00;;;12.70;100.00
73821;BME280;62150;43.582;1.456;2022-11-18T10:51:42;99573.16;;;12.78;100.00
73821;BME280;62150;43.582;1.456;2022-11-18T10:54:15;99571.50;;;12.61;100.00
73821;BME280;62150;43.582;1.456;2022-11-18T10:56:46;99568.75;;;12.80;100.00
73821;BME280;62150;43.582;1.456;2022-11-18T10:59:25;99571.94;;;12.83;100.00
73821;BME280;62150;43.582;1.456;2022-11-18T11:02:00;99559.03;;;12.69;100.00
73821;BME280;62150;43.582;1.456;2022-11-18T11:04:30;99553.56;;;12.59;100.00
73821;BME280;62150;43.582;1.456;2022-11-18T11:06:58;99556.13;;;12.75;100.00
73821;BME280;62150;43.582;1.456;2022-11-18T11:09:27;99553.63;;;12.73;100.00
73821;BME280;62150;43.582;1.456;2022-11-18T11:11:58;99549.66;;;12.52;100.00
73821;BME280;62150;43.582;1.456;2022-11-18T11:14:33;99552.53;;;12.92;100.00
73821;BME280;62150;43.582;1.456;2022-11-18T11:17:07;99547.88;;;12.98;100.00
73821;BME280;62150;43.582;1.456;2022-11-18T11:19:47;99538.44;;;12.83;100.00
73821;BME280;62150;43.582;1.456;2022-11-18T11:22:16;99536.16;;;12.79;100.00
73821;BME280;62150;43.582;1.456;2022-11-18T11:24:44;99528.59;;;12.90;100.00
73821;BME280;62150;43.582;1.456;2022-11-18T11:27:27;99520.13;;;12.73;100.00
73821;BME280;62150;43.582;1.456;2022-11-18T11:30:07;99513.13;;;12.75;100.00
73821;BME280;62150;43.582;1.456;2022-11-18T11:35:49;99502.56;;;12.80;100.00
73821;BME280;62150;43.582;1.456;2022-11-18T11:38:29;99504.09;;;12.83;100.00
73821;BME280;62150;43.582;1.456;2022-11-18T11:41:07;99497.41;;;12.94;100.00
73821;BME280;62150;43.582;1.456;2022-11-18T11:43:54;99496.94;;;12.88;100.00
73821;BME280;62150;43.582;1.456;2022-11-18T11:46:33;99491.84;;;12.72;100.00
73821;BME280;62150;43.582;1.456;2022-11-18T11:49:14;99478.34;;;12.97;100.00
73821;BME280;62150;43.582;1.456;2022-11-18T11:51:49;99475.06;;;13.23;100.00
73821;BME280;62150;43.582;1.456;2022-11-18T11:54:29;99473.50;;;13.35;100.00
73821;BME280;62150;43.582;1.456;2022-11-18T11:57:04;99466.75;;;13.18;100.00
73821;BME280;62150;43.582;1.456;2022-11-18T11:59:44;99472.28;;;13.40;100.00
73821;BME280;62150;43.582;1.456;2022-11-18T12:02:37;99469.81;;;13.80;100.00
73821;BME280;62150;43.582;1.456;2022-11-18T12:05:16;99459.31;;;13.83;100.00
73821;BME280;62150;43.582;1.456;2022-11-18T12:07:46;99464.19;;;13.47;100.00
73821;BME280;62150;43.582;1.456;2022-11-18T12:10:26;99461.31;;;13.51;100.00
73821;BME280;62150;43.582;1.456;2022-11-18T12:13:10;99462.72;;;13.28;100.00
73821;BME280;62150;43.582;1.456;2022-11-18T12:18:37;99468.75;;;13.56;100.00
73821;BME280;62150;43.582;1.456;2022-11-18T12:21:06;99457.88;;;13.65;100.00
73821;BME280;62150;43.582;1.456;2022-11-18T12:23:34;99463.91;;;13.23;100.00
73821;BME280;62150;43.582;1.456;2022-11-18T12:26:04;99470.63;;;13.39;100.00
73821;BME280;62150;43.582;1.456;2022-11-18T12:28:35;99460.66;;;13.05;100.00
73821;BME280;62150;43.582;1.456;2022-11-18T12:31:34;99467.69;;;13.31;100.00
73821;BME280;62150;43.582;1.456;2022-11-18T12:34:15;99459.41;;;13.26;100.00
73821;BME280;62150;43.582;1.456;2022-11-18T12:36:45;99452.19;;;13.46;100.00
73821;BME280;62150;43.582;1.456;2022-11-18T12:42:40;99457.91;;;13.36;100.00
73821;BME280;62150;43.582;1.456;2022-11-18T12:45:56;99445.63;;;13.54;100.00
73821;BME280;62150;43.582;1.456;2022-11-18T12:48:36;99442.22;;;13.54;100.00
73821;BME280;62150;43.582;1.456;2022-11-18T12:54:27;99457.91;;;13.51;100.00
73821;BME280;62150;43.582;1.456;2022-11-18T12:57:00;99468.06;;;13.39;100.00
73821;BME280;62150;43.582;1.456;2022-11-18T12:59:31;99462.81;;;13.41;100.00
73821;BME280;62150;43.582;1.456;2022-11-18T13:02:17;99463.25;;;13.48;100.00
73821;BME280;62150;43.582;1.456;2022-11-18T13:05:05;99459.56;;;13.23;100.00
73821;BME280;62150;43.582;1.456;2022-11-18T13:07:38;99458.84;;;13.21;100.00
73821;BME280;62150;43.582;1.456;2022-11-18T13:10:28;99455.34;;;13.36;100.00
73821;BME280;62150;43.582;1.456;2022-11-18T13:12:57;99446.88;;;13.34;100.00
73821;BME280;62150;43.582;1.456;2022-11-18T13:15:25;99450.56;;;13.30;100.00
73821;BME280;62150;43.582;1.456;2022-11-18T13:18:14;99435.16;;;13.15;100.00
73821;BME280;62150;43.582;1.456;2022-11-18T13:20:55;99443.38;;;13.21;100.00
73821;BME280;62150;43.582;1.456;2022-11-18T13:23:26;99434.59;;;13.09;100.00
73821;BME280;62150;43.582;1.456;2022-11-18T13:26:17;99430.56;;;13.34;100.00
73821;BME280;62150;43.582;1.456;2022-11-18T13:28:59;99428.44;;;13.26;100.00
73821;BME280;62150;43.582;1.456;2022-11-18T13:31:33;99421.63;;;13.25;100.00
73821;BME280;62150;43.582;1.456;2022-11-18T13:34:09;99421.34;;;13.30;100.00
73821;BME280;62150;43.582;1.456;2022-11-18T13:36:44;99425.50;;;13.18;100.00
73821;BME280;62150;43.582;1.456;2022-11-18T13:39:17;99424.28;;;13.09;100.00
73821;BME280;62150;43.582;1.456;2022-11-18T13:41:58;99430.66;;;13.18;100.00
73821;BME280;62150;43.582;1.456;2022-11-18T13:44:28;99433.59;;;12.98;100.00
73821;BME280;62150;43.582;1.456;2022-11-18T13:47:02;99426.59;;;13.14;100.00
73821;BME280;62150;43.582;1.456;2022-11-18T13:49:42;99436.72;;;13.31;100.00
73821;BME280;62150;43.582;1.456;2022-11-18T13:52:14;99437.09;;;13.25;100.00
73821;BME280;62150;43.582;1.456;2022-11-18T13:54:43;99433.22;;;13.18;100.00
73821;BME280;62150;43.582;1.456;2022-11-18T13:57:16;99427.69;;;13.38;100.00
73821;BME280;62150;43.582;1.456;2022-11-18T13:59:46;99434.53;;;13.11;100.00
73821;BME280;62150;43.582;1.456;2022-11-18T14:02:16;99438.19;;;13.07;100.00
73821;BME280;62150;43.582;1.456;2022-11-18T14:04:53;99437.38;;;13.06;100.00
73821;BME280;62150;43.582;1.456;2022-11-18T14:07:29;99439.94;;;12.92;100.00
73821;BME280;62150;43.582;1.456;2022-11-18T14:09:59;99435.44;;;12.96;100.00
73821;BME280;62150;43.582;1.456;2022-11-18T14:12:28;99424.94;;;12.99;100.00
73821;BME280;62150;43.582;1.456;2022-11-18T14:15:20;99432.94;;;13.08;100.00
73821;BME280;62150;43.582;1.456;2022-11-18T14:17:53;99429.72;;;13.05;100.00
73821;BME280;62150;43.582;1.456;2022-11-18T14:20:21;99436.44;;;13.07;100.00
73821;BME280;62150;43.582;1.456;2022-11-18T14:22:53;99434.06;;;13.04;100.00
73821;BME280;62150;43.582;1.456;2022-11-18T14:25:25;99427.69;;;12.96;100.00
73821;BME280;62150;43.582;1.456;2022-11-18T14:27:54;99433.31;;;12.88;100.00
73821;BME280;62150;43.582;1.456;2022-11-18T14:30:31;99429.09;;;13.01;100.00
73821;BME280;62150;43.582;1.456;2022-11-18T14:33:25;99424.56;;;13.05;100.00
73821;BME280;62150;43.582;1.456;2022-11-18T14:35:55;99423.84;;;13.03;100.00
73821;BME280;62150;43.582;1.456;2022-11-18T14:38:34;99420.06;;;12.94;100.00
73821;BME280;62150;43.582;1.456;2022-11-18T14:41:07;99414.34;;;12.89;100.00
73821;BME280;62150;43.582;1.456;2022-11-18T14:43:35;99419.97;;;12.96;100.00
73821;BME280;62150;43.582;1.456;2022-11-18T14:46:04;99417.19;;;12.85;100.00
73821;BME280;62150;43.582;1.456;2022-11-18T14:48:33;99413.50;;;12.89;100.00
73821;BME280;62150;43.582;1.456;2022-11-18T14:51:00;99411.59;;;12.78;100.00
73821;BME280;62150;43.582;1.456;2022-11-18T14:53:29;99410.56;;;13.09;100.00
73821;BME280;62150;43.582;1.456;2022-11-18T14:55:58;99410.03;;;13.04;100.00
73821;BME280;62150;43.582;1.456;2022-11-18T14:58:26;99405.22;;;12.84;100.00
73821;BME280;62150;43.582;1.456;2022-11-18T15:00:54;99404.59;;;12.80;100.00
73821;BME280;62150;43.582;1.456;2022-11-18T15:03:21;99402.38;;;12.88;100.00
73821;BME280;62150;43.582;1.456;2022-11-18T15:05:49;99404.50;;;12.96;100.00
73821;BME280;62150;43.582;1.456;2022-11-18T15:08:16;99409.03;;;12.78;100.00
73821;BME280;62150;43.582;1.456;2022-11-18T15:10:45;99410.34;;;12.55;100.00
73821;BME280;62150;43.582;1.456;2022-11-18T15:13:13;99404.19;;;12.58;100.00
73821;BME280;62150;43.582;1.456;2022-11-18T15:15:40;99410.53;;;12.52;100.00
73821;BME280;62150;43.582;1.456;2022-11-18T15:18:08;99415.81;;;12.65;100.00
73821;BME280;62150;43.582;1.456;2022-11-18T15:20:36;99415.88;;;12.49;100.00
73821;BME280;62150;43.582;1.456;2022-11-18T15:23:03;99418.53;;;12.48;100.00
73821;BME280;62150;43.582;1.456;2022-11-18T15:25:31;99420.44;;;12.30;100.00
73821;BME280;62150;43.582;1.456;2022-11-18T15:28:00;99432.72;;;12.40;100.00
73821;BME280;62150;43.582;1.456;2022-11-18T15:30:27;99431.31;;;12.35;100.00
73821;BME280;62150;43.582;1.456;2022-11-18T15:32:55;99437.22;;;12.37;100.00
73821;BME280;62150;43.582;1.456;2022-11-18T15:35:22;99436.38;;;12.36;100.00
73821;BME280;62150;43.582;1.456;2022-11-18T15:37:50;99436.63;;;12.32;100.00
73821;BME280;62150;43.582;1.456;2022-11-18T15:40:18;99437.16;;;12.23;100.00
73821;BME280;62150;43.582;1.456;2022-11-18T15:42:46;99440.63;;;12.07;100.00
73821;BME280;62150;43.582;1.456;2022-11-18T15:45:14;99440.44;;;12.11;100.00
73821;BME280;62150;43.582;1.456;2022-11-18T15:47:42;99448.91;;;12.13;100.00
73821;BME280;62150;43.582;1.456;2022-11-18T15:50:10;99451.00;;;12.06;100.00
73821;BME280;62150;43.582;1.456;2022-11-18T15:52:38;99444.19;;;12.05;100.00
73821;BME280;62150;43.582;1.456;2022-11-18T15:55:06;99457.41;;;11.99;100.00
73821;BME280;62150;43.582;1.456;2022-11-18T15:57:34;99461.22;;;11.92;100.00
73821;BME280;62150;43.582;1.456;2022-11-18T16:00:02;99464.63;;;11.92;100.00
73821;BME280;62150;43.582;1.456;2022-11-18T16:02:31;99462.78;;;11.79;100.00
73821;BME280;62150;43.582;1.456;2022-11-18T16:04:58;99463.22;;;11.71;100.00
73821;BME280;62150;43.582;1.456;2022-11-18T16:07:26;99461.78;;;11.65;100.00
73821;BME280;62150;43.582;1.456;2022-11-18T16:09:53;99469.59;;;11.64;100.00
73821;BME280;62150;43.582;1.456;2022-11-18T16:12:38;99473.81;;;11.65;100.00
73821;BME280;62150;43.582;1.456;2022-11-18T16:15:22;99479.31;;;11.59;100.00
73821;BME280;62150;43.582;1.456;2022-11-18T16:18:08;99486.19;;;11.58;100.00
73821;BME280;62150;43.582;1.456;2022-11-18T16:20:36;99496.41;;;11.60;100.00
73821;BME280;62150;43.582;1.456;2022-11-18T16:23:04;99490.50;;;11.58;100.00
73821;BME280;62150;43.582;1.456;2022-11-18T16:25:31;99495.06;;;11.53;100.00
73821;BME280;62150;43.582;1.456;2022-11-18T16:27:59;99498.03;;;11.45;100.00
73821;BME280;62150;43.582;1.456;2022-11-18T16:30:26;99500.00;;;11.24;100.00
73821;BME280;62150;43.582;1.456;2022-11-18T16:33:14;99505.06;;;11.26;100.00
73821;BME280;62150;43.582;1.456;2022-11-18T16:35:46;99506.59;;;11.13;100.00
73821;BME280;62150;43.582;1.456;2022-11-18T16:38:13;99507.75;;;11.07;100.00
73821;BME280;62150;43.582;1.456;2022-11-18T16:40:41;99513.88;;;11.04;100.00
73821;BME280;62150;43.582;1.456;2022-11-18T16:43:08;99511.53;;;11.00;100.00
73821;BME280;62150;43.582;1.456;2022-11-18T16:45:37;99518.06;;;10.90;100.00
73821;BME280;62150;43.582;1.456;2022-11-18T16:48:04;99517.81;;;10.94;100.00
73821;BME280;62150;43.582;1.456;2022-11-18T16:50:33;99522.13;;;10.94;100.00
73821;BME280;62150;43.582;1.456;2022-11-18T16:53:01;99519.56;;;10.94;100.00
73821;BME280;62150;43.582;1.456;2022-11-18T16:55:29;99514.56;;;10.91;100.00
73821;BME280;62150;43.582;1.456;2022-11-18T16:57:57;99525.38;;;10.80;100.00
73821;BME280;62150;43.582;1.456;2022-11-18T17:00:24;99519.56;;;10.77;100.00
73821;BME280;62150;43.582;1.456;2022-11-18T17:02:52;99522.06;;;10.78;100.00
73821;BME280;62150;43.582;1.456;2022-11-18T17:05:19;99528.28;;;10.74;100.00
73821;BME280;62150;43.582;1.456;2022-11-18T17:07:48;99533.78;;;10.66;100.00
73821;BME280;62150;43.582;1.456;2022-11-18T17:10:16;99533.16;;;10.79;100.00
73821;BME280;62150;43.582;1.456;2022-11-18T17:12:46;99531.00;;;10.71;100.00
73821;BME280;62150;43.582;1.456;2022-11-18T17:15:15;99537.88;;;10.70;100.00
73821;BME280;62150;43.582;1.456;2022-11-18T17:17:42;99541.13;;;10.74;100.00
73821;BME280;62150;43.582;1.456;2022-11-18T17:20:10;99558.03;;;10.61;100.00
73821;BME280;62150;43.582;1.456;2022-11-18T17:22:37;99555.91;;;10.52;100.00
73821;BME280;62150;43.582;1.456;2022-11-18T17:25:07;99557.28;;;10.59;100.00
73821;BME280;62150;43.582;1.456;2022-11-18T17:27:35;99561.25;;;10.47;100.00
73821;BME280;62150;43.582;1.456;2022-11-18T17:30:04;99574.41;;;10.58;100.00
73821;BME280;62150;43.582;1.456;2022-11-18T17:32:31;99576.38;;;10.53;100.00
73821;BME280;62150;43.582;1.456;2022-11-18T17:34:59;99578.25;;;10.50;100.00
73821;BME280;62150;43.582;1.456;2022-11-18T17:37:28;99584.50;;;10.44;100.00
73821;BME280;62150;43.582;1.456;2022-11-18T17:39:55;99583.31;;;10.51;100.00
73821;BME280;62150;43.582;1.456;2022-11-18T17:42:24;99585.75;;;10.54;100.00
73821;BME280;62150;43.582;1.456;2022-11-18T17:44:52;99585.88;;;10.51;100.00
73821;BME280;62150;43.582;1.456;2022-11-18T17:47:19;99592.28;;;10.43;100.00
73821;BME280;62150;43.582;1.456;2022-11-18T17:49:47;99590.31;;;10.48;100.00
73821;BME280;62150;43.582;1.456;2022-11-18T17:52:16;99598.88;;;10.48;100.00
73821;BME280;62150;43.582;1.456;2022-11-18T17:54:44;99600.38;;;10.52;100.00
73821;BME280;62150;43.582;1.456;2022-11-18T17:57:12;99604.19;;;10.62;100.00
73821;BME280;62150;43.582;1.456;2022-11-18T17:59:41;99613.91;;;10.56;100.00
73821;BME280;62150;43.582;1.456;2022-11-18T18:02:10;99615.81;;;10.52;100.00
73821;BME280;62150;43.582;1.456;2022-11-18T18:04:38;99611.06;;;10.62;100.00
73821;BME280;62150;43.582;1.456;2022-11-18T18:07:05;99612.81;;;10.61;100.00
73821;BME280;62150;43.582;1.456;2022-11-18T18:09:33;99609.00;;;10.51;100.00
73821;BME280;62150;43.582;1.456;2022-11-18T18:12:01;99615.47;;;10.41;100.00
73821;BME280;62150;43.582;1.456;2022-11-18T18:14:51;99619.34;;;10.50;100.00
73821;BME280;62150;43.582;1.456;2022-11-18T18:17:17;99618.34;;;10.35;100.00
73821;BME280;62150;43.582;1.456;2022-11-18T18:19:45;99613.59;;;10.45;100.00
73821;BME280;62150;43.582;1.456;2022-11-18T18:22:13;99619.16;;;10.35;100.00
73821;BME280;62150;43.582;1.456;2022-11-18T18:24:40;99623.53;;;10.33;100.00
73821;BME280;62150;43.582;1.456;2022-11-18T18:27:08;99622.44;;;10.39;100.00
73821;BME280;62150;43.582;1.456;2022-11-18T18:29:36;99619.38;;;10.31;100.00
73821;BME280;62150;43.582;1.456;2022-11-18T18:32:05;99617.44;;;10.36;100.00
73821;BME280;62150;43.582;1.456;2022-11-18T18:34:32;99614.81;;;10.37;100.00
73821;BME280;62150;43.582;1.456;2022-11-18T18:37:00;99615.28;;;10.27;100.00
73821;BME280;62150;43.582;1.456;2022-11-18T18:39:27;99627.56;;;10.20;100.00
73821;BME280;62150;43.582;1.456;2022-11-18T18:41:55;99615.75;;;10.16;100.00
73821;BME280;62150;43.582;1.456;2022-11-18T18:44:22;99621.59;;;10.20;100.00
73821;BME280;62150;43.582;1.456;2022-11-18T18:47:11;99618.22;;;10.18;100.00
73821;BME280;62150;43.582;1.456;2022-11-18T18:49:37;99625.84;;;10.21;100.00
73821;BME280;62150;43.582;1.456;2022-11-18T18:52:05;99626.84;;;10.17;100.00
73821;BME280;62150;43.582;1.456;2022-11-18T18:54:32;99624.09;;;10.21;100.00
73821;BME280;62150;43.582;1.456;2022-11-18T18:57:00;99628.09;;;10.08;100.00
73821;BME280;62150;43.582;1.456;2022-11-18T18:59:28;99632.44;;;10.06;100.00
73821;BME280;62150;43.582;1.456;2022-11-18T19:01:56;99639.03;;;10.12;100.00
73821;BME280;62150;43.582;1.456;2022-11-18T19:04:25;99636.69;;;10.07;100.00
73821;BME280;62150;43.582;1.456;2022-11-18T19:06:52;99643.41;;;10.09;100.00
73821;BME280;62150;43.582;1.456;2022-11-18T19:09:20;99644.75;;;10.18;100.00
73821;BME280;62150;43.582;1.456;2022-11-18T19:11:47;99641.88;;;10.05;100.00
73821;BME280;62150;43.582;1.456;2022-11-18T19:14:33;99646.28;;;10.03;100.00
73821;BME280;62150;43.582;1.456;2022-11-18T19:17:01;99642.38;;;9.95;100.00
73821;BME280;62150;43.582;1.456;2022-11-18T19:19:30;99646.28;;;10.03;100.00
73821;BME280;62150;43.582;1.456;2022-11-18T19:22:15;99650.00;;;9.96;100.00
73821;BME280;62150;43.582;1.456;2022-11-18T19:24:42;99641.63;;;9.93;100.00